CLE weather

Cleveland Hopkins International Airport
Cleveland, Ohio, United States

Public forecast

Using degrees Fahrenheit for public forecast. Weather courtesy of forecast.io.

METAR (pilot weather report)

Retrieved 2019/03/20 02:51 UTC (10 minutes ago):

KCLE 200251Z 16006KT 10SM FEW250 01/M04 A3035 RMK AO2 SLP284 T00111044 58007

TAF (pilot weather forecast)

Forecast is more than 12 hours old.

Retrieved 2019/03/19 00:34 UTC (1 day ago):

TAF KCLE 192332Z 2000/2106 VRB03KT P6SM SCT250 FM201600 19008KT P6SM SCT050 BKN150 FM202100 20010G20KT P6SM BKN050 FM210300 19012KT P6SM -RA OVC030